createdAt,value
2023-01-29T00:01:24.184Z,97928.38
2023-01-29T00:06:17.502Z,97913.69
2023-01-29T00:11:11.843Z,97910.88
2023-01-29T00:16:07.258Z,97914.34
2023-01-29T00:21:00.649Z,97915.16
2023-01-29T00:25:54.117Z,97909.81
2023-01-29T00:30:47.526Z,97928.06
2023-01-29T00:35:43.376Z,97911.31
2023-01-29T00:40:57.969Z,97914.84
2023-01-29T00:45:51.407Z,97903.66
2023-01-29T00:50:46.089Z,97902.72
2023-01-29T00:55:39.454Z,97909.91
2023-01-29T01:00:32.791Z,97921.00
2023-01-29T01:05:26.736Z,97919.94
2023-01-29T01:10:25.448Z,97930.22
2023-01-29T01:15:20.741Z,97933.75
2023-01-29T01:20:15.227Z,97934.38
2023-01-29T01:25:09.847Z,97941.78
2023-01-29T01:30:05.910Z,97941.59
2023-01-29T01:34:59.329Z,97940.94
2023-01-29T01:39:57.811Z,97950.44
2023-01-29T01:45:01.227Z,97956.91
2023-01-29T01:50:02.754Z,97949.34
2023-01-29T01:54:56.614Z,97951.06
2023-01-29T01:59:57.701Z,97950.94
2023-01-29T02:05:09.294Z,97949.34
2023-01-29T02:10:11.605Z,97953.63
2023-01-29T02:15:06.472Z,97954.47
2023-01-29T02:20:09.808Z,97957.19
2023-01-29T02:25:33.998Z,97953.59
2023-01-29T02:30:36.662Z,97956.25
2023-01-29T02:35:37.592Z,97958.88
2023-01-29T02:40:37.427Z,97949.44
2023-01-29T02:45:43.225Z,97952.53
2023-01-29T02:50:45.801Z,97949.44
2023-01-29T02:55:48.036Z,97940.84
2023-01-29T03:00:48.083Z,97938.06
2023-01-29T03:05:55.102Z,97933.88
2023-01-29T03:10:57.093Z,97934.94
2023-01-29T03:16:01.974Z,97947.50
2023-01-29T03:21:04.097Z,97938.88
2023-01-29T03:26:18.153Z,97940.25
2023-01-29T03:31:33.285Z,97935.38
2023-01-29T03:36:38.340Z,97944.03
2023-01-29T03:41:39.607Z,97940.00
2023-01-29T03:46:43.545Z,97948.44
2023-01-29T03:51:42.885Z,97938.34
2023-01-29T03:56:51.337Z,97923.38
2023-01-29T04:01:51.433Z,97916.53
2023-01-29T04:06:48.699Z,97926.81
2023-01-29T04:11:50.773Z,97921.88
2023-01-29T04:16:53.474Z,97910.53
2023-01-29T04:21:52.686Z,97911.53
2023-01-29T04:26:59.207Z,97910.44
2023-01-29T04:32:05.087Z,97914.91
2023-01-29T04:37:12.783Z,97903.53
2023-01-29T04:42:15.307Z,97921.38
2023-01-29T04:47:28.230Z,97909.59
2023-01-29T04:52:30.440Z,97914.09
2023-01-29T04:57:31.417Z,97908.06
2023-01-29T05:02:28.760Z,97904.56
2023-01-29T05:07:25.491Z,97924.09
2023-01-29T05:12:19.959Z,97926.72
2023-01-29T05:17:18.923Z,97939.06
2023-01-29T05:22:22.693Z,97937.19
2023-01-29T05:27:39.125Z,97945.13
2023-01-29T05:32:32.553Z,97951.03
2023-01-29T05:37:27.339Z,97954.25
2023-01-29T05:42:21.615Z,97960.59
2023-01-29T05:47:14.963Z,97969.16
2023-01-29T05:52:08.316Z,97970.06
2023-01-29T05:57:03.058Z,97972.97
2023-01-29T06:01:56.521Z,97974.59
2023-01-29T06:06:49.937Z,97972.69
2023-01-29T06:11:43.473Z,97973.47
2023-01-29T06:16:38.251Z,97964.94
2023-01-29T06:21:31.625Z,97971.88
2023-01-29T06:26:25.013Z,97972.88
2023-01-29T06:31:36.630Z,97983.91
2023-01-29T06:36:32.439Z,97990.91
2023-01-29T06:41:26.267Z,97987.84
2023-01-29T06:46:19.721Z,97995.09
2023-01-29T06:51:13.531Z,97991.38
2023-01-29T06:56:09.884Z,97989.63
2023-01-29T07:01:07.388Z,97982.09
2023-01-29T07:06:01.299Z,97981.56
2023-01-29T07:10:54.709Z,97977.81
2023-01-29T07:15:49.547Z,97974.34
2023-01-29T07:20:44.371Z,97968.47
2023-01-29T07:25:37.804Z,97965.81
2023-01-29T07:30:32.334Z,97979.31
2023-01-29T07:35:27.492Z,97972.25
2023-01-29T07:40:21.393Z,97971.56
2023-01-29T07:45:15.709Z,97975.78
2023-01-29T07:50:13.298Z,97973.03
2023-01-29T07:55:09.516Z,97985.72
2023-01-29T08:00:03.324Z,97989.25
2023-01-29T08:04:57.204Z,97975.72
2023-01-29T08:09:50.864Z,97973.84
2023-01-29T08:14:46.107Z,97975.50
2023-01-29T08:19:48.492Z,97988.59
2023-01-29T08:24:53.770Z,97988.50
2023-01-29T08:29:55.086Z,97985.63
2023-01-29T08:34:49.304Z,97978.63
2023-01-29T08:39:45.313Z,97991.09
2023-01-29T08:44:38.957Z,97985.03
2023-01-29T08:49:33.682Z,97991.53
2023-01-29T08:54:27.049Z,97992.28
2023-01-29T08:59:20.450Z,98000.53
2023-01-29T09:04:13.910Z,97999.63
2023-01-29T09:09:08.804Z,98013.31
2023-01-29T09:14:02.159Z,98017.25
2023-01-29T09:18:55.536Z,98020.72
2023-01-29T09:23:48.914Z,98027.94
2023-01-29T09:28:43.634Z,98020.59
2023-01-29T09:33:36.947Z,98029.13
2023-01-29T09:38:30.653Z,98027.38
2023-01-29T09:43:40.254Z,98033.75
2023-01-29T09:48:37.944Z,98033.06
2023-01-29T09:53:40.536Z,98032.09
2023-01-29T09:58:38.331Z,98035.19
2023-01-29T10:04:08.635Z,98048.00
2023-01-29T10:09:45.773Z,98052.97
2023-01-29T10:14:55.324Z,98054.91
2023-01-29T10:20:17.540Z,98063.97
2023-01-29T10:25:17.192Z,98072.81
2023-01-29T10:30:29.656Z,98061.56
2023-01-29T10:35:32.555Z,98061.94
2023-01-29T10:40:44.854Z,98050.16
2023-01-29T10:45:50.648Z,98044.75
2023-01-29T10:50:53.238Z,98037.22
2023-01-29T10:56:05.766Z,98029.56
2023-01-29T11:01:02.011Z,98033.50
2023-01-29T11:06:10.228Z,98040.06
2023-01-29T11:11:10.323Z,98026.94
2023-01-29T11:16:06.766Z,98019.91
2023-01-29T11:21:06.739Z,98007.19
2023-01-29T11:26:01.998Z,98005.44
2023-01-29T11:30:56.321Z,97989.19
2023-01-29T11:35:50.022Z,98000.47
2023-01-29T11:40:46.140Z,97996.97
2023-01-29T11:45:41.496Z,97979.44
2023-01-29T11:50:35.554Z,97981.69
2023-01-29T11:55:49.360Z,97978.84
2023-01-29T12:00:52.204Z,97977.50
2023-01-29T12:05:58.589Z,97972.41
2023-01-29T12:10:52.586Z,97979.03
2023-01-29T12:15:49.333Z,97973.66
2023-01-29T12:20:48.751Z,97966.03
2023-01-29T12:25:56.606Z,97955.88
2023-01-29T12:31:23.580Z,97965.91
2023-01-29T12:36:26.899Z,97965.94
2023-01-29T12:41:44.098Z,97966.44
2023-01-29T12:46:46.174Z,97959.34
2023-01-29T12:51:49.022Z,97953.34
2023-01-29T12:56:48.317Z,97945.28
2023-01-29T13:01:50.678Z,97935.19
2023-01-29T13:06:50.985Z,97929.53
2023-01-29T13:11:53.581Z,97921.81
2023-01-29T13:16:55.621Z,97924.75
2023-01-29T13:21:49.855Z,97915.19
2023-01-29T13:26:47.274Z,97913.56
2023-01-29T13:31:46.216Z,97909.06
2023-01-29T13:36:46.941Z,97912.56
2023-01-29T13:41:43.753Z,97911.91
2023-01-29T13:46:38.736Z,97907.38
2023-01-29T13:51:37.672Z,97907.44
2023-01-29T13:56:59.307Z,97900.34
2023-01-29T14:02:22.629Z,97900.81
2023-01-29T14:07:51.081Z,97886.13
2023-01-29T14:12:52.962Z,97882.94
2023-01-29T14:18:00.823Z,97889.50
2023-01-29T14:23:00.441Z,97882.41
2023-01-29T14:27:55.649Z,97859.28
2023-01-29T14:32:52.636Z,97859.00
2023-01-29T14:37:51.429Z,97849.50
2023-01-29T14:42:59.733Z,97857.78
2023-01-29T14:48:03.331Z,97857.56
2023-01-29T14:53:04.666Z,97858.16
2023-01-29T14:58:00.531Z,97841.78
2023-01-29T15:03:01.936Z,97850.75
2023-01-29T15:08:01.978Z,97860.72
2023-01-29T15:13:04.624Z,97859.09
2023-01-29T15:18:05.966Z,97861.75
2023-01-29T15:22:59.965Z,97870.78
2023-01-29T15:27:56.045Z,97864.94
2023-01-29T15:32:51.245Z,97865.88
2023-01-29T15:37:44.795Z,97870.84
2023-01-29T15:42:48.646Z,97869.94
2023-01-29T15:47:42.158Z,97872.53
2023-01-29T15:52:37.070Z,97874.38
2023-01-29T15:57:40.499Z,97888.13
2023-01-29T16:02:40.531Z,97887.47
2023-01-29T16:07:36.365Z,97898.06
2023-01-29T16:12:30.441Z,97907.66
2023-01-29T16:17:27.214Z,97919.38
2023-01-29T16:22:21.406Z,97903.13
2023-01-29T16:27:16.364Z,97922.59
2023-01-29T16:32:13.918Z,97926.22
2023-01-29T16:37:21.126Z,97931.56
2023-01-29T16:42:28.946Z,97934.13
2023-01-29T16:47:30.629Z,97935.06
2023-01-29T16:52:28.357Z,97946.94
2023-01-29T16:57:28.788Z,97954.50
2023-01-29T17:02:27.957Z,97954.63
2023-01-29T17:07:22.473Z,97967.78
2023-01-29T17:12:23.037Z,97964.84
2023-01-29T17:17:20.048Z,97948.59
2023-01-29T17:22:14.874Z,97957.44
2023-01-29T17:27:08.585Z,97955.91
2023-01-29T17:32:02.244Z,97955.25
2023-01-29T17:36:57.627Z,97960.50
2023-01-29T17:41:54.547Z,97967.94
2023-01-29T17:46:48.612Z,97968.22
2023-01-29T17:51:41.967Z,97971.66
2023-01-29T17:56:36.701Z,97970.75
2023-01-29T18:06:49.560Z,97978.50
2023-01-29T18:16:49.781Z,97970.84
2023-01-29T18:21:43.180Z,97971.88
2023-01-29T18:26:37.112Z,97965.63
2023-01-29T18:31:30.876Z,97966.91
2023-01-29T18:36:25.803Z,97970.53
2023-01-29T18:41:19.831Z,97968.22
2023-01-29T18:46:13.438Z,97965.44
2023-01-29T18:51:07.491Z,97968.03
2023-01-29T18:56:05.112Z,97963.66
2023-01-29T19:00:58.604Z,97971.50
2023-01-29T19:05:52.245Z,97969.75
2023-01-29T19:10:45.749Z,97962.16
2023-01-29T19:15:44.394Z,97973.47
2023-01-29T19:20:42.410Z,97979.72
2023-01-29T19:25:39.446Z,97983.91
2023-01-29T19:30:33.020Z,97974.56
2023-01-29T19:35:28.613Z,97981.41
2023-01-29T19:45:49.118Z,97978.06
2023-01-29T19:50:44.753Z,97979.78
2023-01-29T19:55:38.082Z,97985.19
2023-01-29T20:00:31.812Z,97986.06
2023-01-29T20:05:27.129Z,97997.44
2023-01-29T20:10:21.997Z,97993.25
2023-01-29T20:15:16.398Z,97985.56
2023-01-29T20:25:13.754Z,97991.88
2023-01-29T20:40:32.230Z,97993.41
2023-01-29T20:45:25.934Z,97980.75
2023-01-29T20:50:19.900Z,97983.41
2023-01-29T20:55:14.778Z,97975.88
2023-01-29T21:00:12.809Z,97975.09
2023-01-29T21:05:07.010Z,97962.94
2023-01-29T21:10:00.306Z,97975.94
2023-01-29T21:14:53.718Z,97969.72
2023-01-29T21:19:48.717Z,97968.66
2023-01-29T21:24:42.033Z,97966.94
2023-01-29T21:29:37.723Z,97961.88
2023-01-29T21:34:31.320Z,97965.22
2023-01-29T21:39:26.412Z,97960.94
2023-01-29T21:44:19.891Z,97962.63
2023-01-29T21:49:13.232Z,97954.81
2023-01-29T21:54:06.728Z,97950.38
2023-01-29T21:59:02.419Z,97946.25
2023-01-29T22:03:55.881Z,97951.75
2023-01-29T22:08:50.427Z,97941.50
2023-01-29T22:13:52.916Z,97934.94
2023-01-29T22:18:47.896Z,97936.81
2023-01-29T22:23:45.783Z,97929.91
2023-01-29T22:28:44.278Z,97923.53
2023-01-29T22:33:45.651Z,97914.81
2023-01-29T22:38:49.507Z,97911.47
2023-01-29T22:43:44.151Z,97900.03
2023-01-29T22:48:37.700Z,97894.75
2023-01-29T22:53:31.134Z,97900.38
2023-01-29T22:58:26.013Z,97881.66
2023-01-29T23:03:19.337Z,97886.75
2023-01-29T23:08:12.668Z,97878.78
2023-01-29T23:13:06.033Z,97871.88
2023-01-29T23:18:01.220Z,97875.03
2023-01-29T23:22:54.585Z,97870.91
2023-01-29T23:27:48.049Z,97864.69
2023-01-29T23:32:41.407Z,97865.34
2023-01-29T23:37:36.144Z,97855.22
2023-01-29T23:42:29.485Z,97846.28
2023-01-29T23:47:22.805Z,97848.69
2023-01-29T23:52:16.195Z,97836.53
2023-01-29T23:57:11.035Z,97834.06
